createdAt,value
2022-12-11T00:00:59.942Z,90.26
2022-12-11T00:02:01.863Z,90.49
2022-12-11T00:03:04.342Z,91.22
2022-12-11T00:04:06.031Z,91.29
2022-12-11T00:05:08.417Z,91.05
2022-12-11T00:06:13.644Z,91.20
2022-12-11T00:07:15.313Z,91.87
2022-12-11T00:08:17.038Z,91.01
2022-12-11T00:09:19.735Z,91.58
2022-12-11T00:10:21.443Z,91.67
2022-12-11T00:11:23.807Z,91.78
2022-12-11T00:12:25.519Z,91.95
2022-12-11T00:13:27.469Z,91.69
2022-12-11T00:14:29.697Z,91.28
2022-12-11T00:15:31.431Z,91.09
2022-12-11T00:16:33.197Z,91.42
2022-12-11T00:17:34.944Z,91.24
2022-12-11T00:18:36.979Z,92.10
2022-12-11T00:19:38.686Z,92.92
2022-12-11T00:20:40.644Z,93.56
2022-12-11T00:21:42.474Z,93.86
2022-12-11T00:22:44.195Z,93.62
2022-12-11T00:23:45.873Z,93.87
2022-12-11T00:24:47.572Z,93.42
2022-12-11T00:25:49.748Z,93.71
2022-12-11T00:26:51.460Z,93.47
2022-12-11T00:27:53.123Z,92.67
2022-12-11T00:28:57.184Z,93.13
2022-12-11T00:29:58.835Z,93.19
2022-12-11T00:31:07.528Z,93.43
2022-12-11T00:32:09.261Z,94.12
2022-12-11T00:33:11.801Z,93.69
2022-12-11T00:34:13.567Z,94.14
2022-12-11T00:35:15.263Z,94.26
2022-12-11T00:36:23.108Z,93.89
2022-12-11T00:37:24.896Z,93.97
2022-12-11T00:38:26.675Z,94.46
2022-12-11T00:39:28.363Z,94.26
2022-12-11T00:40:30.032Z,93.91
2022-12-11T00:41:32.305Z,93.52
2022-12-11T00:42:33.977Z,94.00
2022-12-11T00:43:35.863Z,93.56
2022-12-11T00:44:37.706Z,93.58
2022-12-11T00:45:42.402Z,93.06
2022-12-11T00:46:44.127Z,92.92
2022-12-11T00:47:45.827Z,91.61
2022-12-11T00:48:49.954Z,91.28
2022-12-11T00:49:51.663Z,90.99
2022-12-11T00:50:53.422Z,90.59
2022-12-11T00:51:55.113Z,91.51
2022-12-11T00:52:56.773Z,90.80
2022-12-11T00:53:58.472Z,89.96
2022-12-11T00:55:00.157Z,89.63
2022-12-11T00:56:01.821Z,90.24
2022-12-11T00:57:03.598Z,90.27
2022-12-11T00:58:05.912Z,90.61
2022-12-11T00:59:07.666Z,90.62
2022-12-11T01:00:10.170Z,91.17
2022-12-11T01:01:21.318Z,90.54
2022-12-11T01:02:23.080Z,90.63
2022-12-11T01:03:24.774Z,91.04
2022-12-11T01:04:26.797Z,91.19
2022-12-11T01:05:28.804Z,91.05
2022-12-11T01:06:30.573Z,91.12
2022-12-11T01:07:32.240Z,91.21
2022-12-11T01:08:38.466Z,91.24
2022-12-11T01:09:59.111Z,90.08
2022-12-11T01:11:10.359Z,89.66
2022-12-11T01:12:11.894Z,89.68
2022-12-11T01:13:13.438Z,89.48
2022-12-11T01:14:15.004Z,89.33
2022-12-11T01:15:16.767Z,89.84
2022-12-11T01:16:18.496Z,89.92
2022-12-11T01:17:20.203Z,91.17
2022-12-11T01:18:22.040Z,90.86
2022-12-11T01:19:23.696Z,91.30
2022-12-11T01:20:26.495Z,90.91
2022-12-11T01:21:28.224Z,90.91
2022-12-11T01:22:30.490Z,91.70
2022-12-11T01:23:32.179Z,91.60
2022-12-11T01:24:33.839Z,91.79
2022-12-11T01:25:38.269Z,91.75
2022-12-11T01:26:40.004Z,91.90
2022-12-11T01:27:41.679Z,91.51
2022-12-11T01:28:44.171Z,92.50
2022-12-11T01:29:45.829Z,92.06
2022-12-11T01:30:47.618Z,92.74
2022-12-11T01:31:49.343Z,92.32
2022-12-11T01:32:51.039Z,92.32
2022-12-11T01:33:55.226Z,91.90
2022-12-11T01:34:56.886Z,91.25
2022-12-11T01:35:58.555Z,91.88
2022-12-11T01:37:00.220Z,91.54
2022-12-11T01:38:01.861Z,91.43
2022-12-11T01:39:04.182Z,90.61
2022-12-11T01:40:07.306Z,90.68
2022-12-11T01:41:09.523Z,90.46
2022-12-11T01:42:17.671Z,89.66
2022-12-11T01:43:19.448Z,89.73
2022-12-11T01:44:21.363Z,89.92
2022-12-11T01:45:30.730Z,90.34
2022-12-11T01:46:34.625Z,90.56
2022-12-11T01:47:36.383Z,90.80
2022-12-11T01:48:42.211Z,90.94
2022-12-11T01:49:44.204Z,90.85
2022-12-11T01:51:06.183Z,91.19
2022-12-11T01:52:16.368Z,91.42
2022-12-11T01:53:25.140Z,92.01
2022-12-11T01:54:28.438Z,92.62
2022-12-11T01:55:30.108Z,93.14
2022-12-11T01:56:34.169Z,93.26
2022-12-11T01:57:40.464Z,93.64
2022-12-11T01:58:47.787Z,93.48
2022-12-11T01:59:49.489Z,93.49
2022-12-11T02:00:52.715Z,92.56
2022-12-11T02:01:59.405Z,92.86
2022-12-11T02:03:01.157Z,93.03
2022-12-11T02:04:03.404Z,93.13
2022-12-11T02:05:06.282Z,92.96
2022-12-11T02:06:37.963Z,92.33
2022-12-11T02:07:52.780Z,91.75
2022-12-11T02:08:54.527Z,91.42
2022-12-11T02:09:56.418Z,91.49
2022-12-11T02:11:21.108Z,91.03
2022-12-11T02:12:41.591Z,90.42
2022-12-11T02:13:48.729Z,89.82
2022-12-11T02:14:52.993Z,89.88
2022-12-11T02:16:29.950Z,90.09
2022-12-11T02:17:56.024Z,89.46
2022-12-11T02:18:57.668Z,89.21
2022-12-11T02:20:16.992Z,89.32
2022-12-11T02:21:34.617Z,89.24
2022-12-11T02:23:04.361Z,89.07
2022-12-11T02:24:27.161Z,88.82
2022-12-11T02:25:37.102Z,88.53
2022-12-11T02:27:00.241Z,89.47
2022-12-11T02:28:11.050Z,89.11
2022-12-11T02:29:26.275Z,89.00
2022-12-11T02:30:28.746Z,89.19
2022-12-11T02:31:36.570Z,89.43
2022-12-11T02:32:59.128Z,88.24
2022-12-11T02:34:29.426Z,88.37
2022-12-11T02:35:38.103Z,88.64
2022-12-11T02:36:48.430Z,88.68
2022-12-11T02:37:56.397Z,88.06
2022-12-11T02:39:01.466Z,88.61
2022-12-11T02:40:04.938Z,89.11
2022-12-11T02:41:08.293Z,88.83
2022-12-11T02:42:13.056Z,88.87
2022-12-11T02:43:16.908Z,88.63
2022-12-11T02:44:27.183Z,88.47
2022-12-11T02:45:29.795Z,88.56
2022-12-11T02:46:34.899Z,88.53
2022-12-11T02:47:39.603Z,88.40
2022-12-11T02:48:42.140Z,87.91
2022-12-11T02:49:47.849Z,87.62
2022-12-11T02:50:52.781Z,87.99
2022-12-11T02:51:57.034Z,88.07
2022-12-11T02:53:03.051Z,87.67
2022-12-11T02:54:07.553Z,88.17
2022-12-11T02:55:13.032Z,88.13
2022-12-11T02:56:26.130Z,88.94
2022-12-11T02:57:40.503Z,89.36
2022-12-11T02:58:52.703Z,90.04
2022-12-11T02:59:57.151Z,89.45
2022-12-11T03:00:58.886Z,89.24
2022-12-11T03:02:01.251Z,89.57
2022-12-11T03:03:03.219Z,89.89
2022-12-11T03:04:05.050Z,89.19
2022-12-11T03:05:07.528Z,89.55
2022-12-11T03:06:14.920Z,89.47
2022-12-11T03:07:26.539Z,89.58
2022-12-11T03:08:28.250Z,89.27
2022-12-11T03:09:29.977Z,89.66
2022-12-11T03:10:31.688Z,90.05
2022-12-11T03:11:33.382Z,90.09
2022-12-11T03:12:39.108Z,89.29
2022-12-11T03:13:42.736Z,89.80
2022-12-11T03:14:45.024Z,89.25
2022-12-11T03:16:03.935Z,88.90
2022-12-11T03:17:15.359Z,88.70
2022-12-11T03:18:35.285Z,88.89
2022-12-11T03:19:45.980Z,88.17
2022-12-11T03:21:04.675Z,88.59
2022-12-11T03:22:16.267Z,88.47
2022-12-11T03:23:30.795Z,88.75
2022-12-11T03:24:46.351Z,89.27
2022-12-11T03:25:55.802Z,88.33
2022-12-11T03:27:11.191Z,88.16
2022-12-11T03:28:19.807Z,88.06
2022-12-11T03:29:25.734Z,88.17
2022-12-11T03:30:29.052Z,88.34
2022-12-11T03:31:42.414Z,88.43
2022-12-11T03:32:50.350Z,88.30
2022-12-11T03:33:56.303Z,88.10
2022-12-11T03:35:05.414Z,87.48
2022-12-11T03:36:31.252Z,87.45
2022-12-11T03:37:36.615Z,86.89
2022-12-11T03:38:49.259Z,87.22
2022-12-11T03:39:54.687Z,86.92
2022-12-11T03:41:00.930Z,86.65
2022-12-11T03:42:07.096Z,86.36
2022-12-11T03:43:11.090Z,86.75
2022-12-11T03:44:13.715Z,86.85
2022-12-11T03:45:17.725Z,87.60
2022-12-11T03:46:22.545Z,87.18
2022-12-11T03:47:27.227Z,86.85
2022-12-11T03:48:34.232Z,86.86
2022-12-11T03:49:40.285Z,86.60
2022-12-11T03:50:43.681Z,86.49
2022-12-11T03:51:48.332Z,86.15
2022-12-11T03:52:51.110Z,85.73
2022-12-11T03:53:53.404Z,85.81
2022-12-11T03:55:00.383Z,85.62
2022-12-11T03:56:04.524Z,85.50
2022-12-11T03:57:08.407Z,85.23
2022-12-11T03:58:10.102Z,85.05
2022-12-11T03:59:12.329Z,84.96
2022-12-11T04:00:16.902Z,84.88
2022-12-11T04:01:18.592Z,84.63
2022-12-11T04:02:20.480Z,84.93
2022-12-11T04:03:22.211Z,84.96
2022-12-11T04:04:23.957Z,84.98
2022-12-11T04:05:25.674Z,85.12
2022-12-11T04:06:27.564Z,84.83
2022-12-11T04:07:29.230Z,84.42
2022-12-11T04:08:30.960Z,84.91
2022-12-11T04:09:33.045Z,84.83
2022-12-11T04:10:34.749Z,84.95
2022-12-11T04:11:36.506Z,85.23
2022-12-11T04:12:38.164Z,85.47
2022-12-11T04:13:41.195Z,85.12
2022-12-11T04:15:01.538Z,84.99
2022-12-11T04:16:03.274Z,85.00
2022-12-11T04:17:05.552Z,85.19
2022-12-11T04:18:27.422Z,85.16
2022-12-11T04:19:47.839Z,85.05
2022-12-11T04:21:08.252Z,85.84
2022-12-11T04:22:32.793Z,86.66
2022-12-11T04:23:52.966Z,86.42
2022-12-11T04:24:54.636Z,85.34
2022-12-11T04:26:14.648Z,84.59
2022-12-11T04:27:36.049Z,84.46
2022-12-11T04:28:37.933Z,84.43
2022-12-11T04:29:39.581Z,84.36
2022-12-11T04:30:41.427Z,84.75
2022-12-11T04:31:43.272Z,84.74
2022-12-11T04:32:45.157Z,84.61
2022-12-11T04:33:47.541Z,84.04
2022-12-11T04:34:49.225Z,84.30
2022-12-11T04:35:50.889Z,84.85
2022-12-11T04:36:52.552Z,85.06
2022-12-11T04:37:54.318Z,84.59
2022-12-11T04:38:56.072Z,84.53
2022-12-11T04:39:57.745Z,83.59
2022-12-11T04:41:08.298Z,82.83
2022-12-11T04:42:09.959Z,82.36
2022-12-11T04:43:11.644Z,81.70
2022-12-11T04:44:13.343Z,81.76
2022-12-11T04:45:15.215Z,82.09
2022-12-11T04:46:21.216Z,81.66
2022-12-11T04:47:23.213Z,81.85
2022-12-11T04:48:24.921Z,81.90
2022-12-11T04:49:26.578Z,81.92
2022-12-11T04:50:28.317Z,81.98
2022-12-11T04:51:30.137Z,81.38
2022-12-11T04:52:31.844Z,81.57
2022-12-11T04:53:34.173Z,82.96
2022-12-11T04:54:36.110Z,83.86
2022-12-11T04:55:39.381Z,84.98
2022-12-11T04:56:41.031Z,85.42
2022-12-11T04:57:42.799Z,85.24
2022-12-11T04:58:45.550Z,84.93
2022-12-11T04:59:47.924Z,84.95
2022-12-11T05:00:49.865Z,84.26
2022-12-11T05:01:52.505Z,84.07
2022-12-11T05:02:54.265Z,84.54
2022-12-11T05:03:56.280Z,84.47
2022-12-11T05:04:57.976Z,84.49
2022-12-11T05:05:59.631Z,84.41
2022-12-11T05:07:01.756Z,84.58
2022-12-11T05:08:03.869Z,84.22
2022-12-11T05:09:05.543Z,84.51
2022-12-11T05:10:07.920Z,84.89
2022-12-11T05:11:12.231Z,85.63
2022-12-11T05:12:13.904Z,85.87
2022-12-11T05:13:15.597Z,86.05
2022-12-11T05:14:17.402Z,85.25
2022-12-11T05:15:19.052Z,84.40
2022-12-11T05:16:20.795Z,84.69
2022-12-11T05:17:22.929Z,84.57
2022-12-11T05:18:25.265Z,84.24
2022-12-11T05:19:27.708Z,84.71
2022-12-11T05:20:29.401Z,84.02
2022-12-11T05:21:35.020Z,83.60
2022-12-11T05:22:38.022Z,83.50
2022-12-11T05:23:40.048Z,83.73
2022-12-11T05:24:41.919Z,83.78
2022-12-11T05:25:43.619Z,83.62
2022-12-11T05:26:45.385Z,83.36
2022-12-11T05:27:47.040Z,83.36
2022-12-11T05:28:54.273Z,82.95
2022-12-11T05:29:59.420Z,82.89
2022-12-11T05:31:05.021Z,83.08
2022-12-11T05:32:07.965Z,83.09
2022-12-11T05:33:09.628Z,82.56
2022-12-11T05:34:11.428Z,82.75
2022-12-11T05:35:13.344Z,82.94
2022-12-11T05:36:22.320Z,83.17
2022-12-11T05:37:23.983Z,83.06
2022-12-11T05:38:25.912Z,82.90
2022-12-11T05:39:27.587Z,82.37
2022-12-11T05:40:29.331Z,82.58
2022-12-11T05:41:32.892Z,82.47
2022-12-11T05:42:34.772Z,81.99
2022-12-11T05:43:37.238Z,81.03
2022-12-11T05:44:38.917Z,80.86
2022-12-11T05:45:40.588Z,80.32
2022-12-11T05:46:42.339Z,80.29
2022-12-11T05:47:44.093Z,79.97
2022-12-11T05:48:48.283Z,80.14
2022-12-11T05:49:49.954Z,79.96
2022-12-11T05:50:59.446Z,79.62
2022-12-11T05:52:01.135Z,79.67
2022-12-11T05:53:02.918Z,79.50
2022-12-11T05:54:05.370Z,79.50
2022-12-11T05:55:07.477Z,79.38
2022-12-11T05:56:13.465Z,79.31
2022-12-11T05:57:15.144Z,79.32
2022-12-11T05:58:16.818Z,79.46
2022-12-11T05:59:19.867Z,79.79
2022-12-11T06:00:21.596Z,79.59
2022-12-11T06:01:30.367Z,79.37
2022-12-11T06:02:34.614Z,78.91
2022-12-11T06:03:36.352Z,78.71
2022-12-11T06:04:38.056Z,78.67
2022-12-11T06:05:41.801Z,78.64
2022-12-11T06:06:43.998Z,78.57
2022-12-11T06:07:45.732Z,78.47
2022-12-11T06:08:51.346Z,78.50
2022-12-11T06:09:53.063Z,78.65
2022-12-11T06:10:54.758Z,78.44
2022-12-11T06:11:56.416Z,78.22
2022-12-11T06:12:58.065Z,77.78
2022-12-11T06:14:01.575Z,77.45
2022-12-11T06:15:05.215Z,77.55
2022-12-11T06:16:08.769Z,78.05
2022-12-11T06:17:10.580Z,78.14
2022-12-11T06:18:12.353Z,78.05
2022-12-11T06:19:16.929Z,77.94
2022-12-11T06:20:18.743Z,78.58
2022-12-11T06:21:26.745Z,78.96
2022-12-11T06:22:28.433Z,78.92
2022-12-11T06:23:30.085Z,79.14
2022-12-11T06:24:31.829Z,79.46
2022-12-11T06:25:33.680Z,79.44
2022-12-11T06:26:35.333Z,79.66
2022-12-11T06:27:37.023Z,79.94
2022-12-11T06:28:39.059Z,80.27
2022-12-11T06:29:41.029Z,80.54
2022-12-11T06:30:42.685Z,81.04
2022-12-11T06:31:44.395Z,81.33
2022-12-11T06:32:46.067Z,81.74
2022-12-11T06:33:48.294Z,81.63
2022-12-11T06:34:50.022Z,82.03
2022-12-11T06:35:52.232Z,82.07
2022-12-11T06:36:53.916Z,82.24
2022-12-11T06:37:56.118Z,82.07
2022-12-11T06:38:57.839Z,82.32
2022-12-11T06:39:59.613Z,82.14
2022-12-11T06:41:04.945Z,81.15
2022-12-11T06:42:06.594Z,81.17
2022-12-11T06:43:08.305Z,81.09
2022-12-11T06:44:10.022Z,80.73
2022-12-11T06:45:12.046Z,80.51
2022-12-11T06:46:16.993Z,81.10
2022-12-11T06:47:18.694Z,81.55
2022-12-11T06:48:20.494Z,82.18
2022-12-11T06:49:22.284Z,82.38
2022-12-11T06:50:24.019Z,81.80
2022-12-11T06:51:25.699Z,81.24
2022-12-11T06:52:30.347Z,81.42
2022-12-11T06:53:32.044Z,80.41
2022-12-11T06:54:33.699Z,80.83
2022-12-11T06:55:36.462Z,80.80
2022-12-11T06:56:38.205Z,81.30
2022-12-11T06:57:40.012Z,80.35
2022-12-11T06:58:43.337Z,80.26
2022-12-11T06:59:45.555Z,80.60
2022-12-11T07:00:47.340Z,81.31
2022-12-11T07:01:49.164Z,81.12
2022-12-11T07:02:51.452Z,81.33
2022-12-11T07:03:55.041Z,82.85
2022-12-11T07:04:56.699Z,82.38
2022-12-11T07:06:02.431Z,81.66
2022-12-11T07:07:04.163Z,80.57
2022-12-11T07:08:07.492Z,79.35
2022-12-11T07:09:10.170Z,77.82
2022-12-11T07:10:12.115Z,78.64
2022-12-11T07:11:15.944Z,78.84
2022-12-11T07:12:17.827Z,79.50
2022-12-11T07:13:19.484Z,83.56
2022-12-11T07:14:21.283Z,84.45
2022-12-11T07:15:22.944Z,81.58
2022-12-11T07:16:25.054Z,76.68
2022-12-11T07:17:26.718Z,75.28
2022-12-11T07:18:29.059Z,75.99
2022-12-11T07:19:31.199Z,77.27
2022-12-11T07:20:32.852Z,76.88
2022-12-11T07:21:34.513Z,76.08
2022-12-11T07:22:40.347Z,75.18
2022-12-11T07:23:44.904Z,75.63
2022-12-11T07:24:46.598Z,76.63
2022-12-11T07:25:48.302Z,76.54
2022-12-11T07:26:50.040Z,76.19
2022-12-11T07:27:51.724Z,75.80
2022-12-11T07:28:53.486Z,75.44
2022-12-11T07:29:55.902Z,75.42
2022-12-11T07:30:57.600Z,75.79
2022-12-11T07:31:59.418Z,74.25
2022-12-11T07:33:01.437Z,73.95
2022-12-11T07:34:05.439Z,73.43
2022-12-11T07:35:07.443Z,73.65
2022-12-11T07:36:11.314Z,73.35
2022-12-11T07:37:12.972Z,74.02
2022-12-11T07:38:14.645Z,74.62
2022-12-11T07:39:16.362Z,75.75
2022-12-11T07:40:18.130Z,76.71
2022-12-11T07:41:19.865Z,76.27
2022-12-11T07:42:21.561Z,75.26
2022-12-11T07:43:23.231Z,75.14
2022-12-11T07:44:24.889Z,75.11
2022-12-11T07:45:26.713Z,74.73
2022-12-11T07:46:31.128Z,74.09
2022-12-11T07:47:33.724Z,74.71
2022-12-11T07:48:36.415Z,74.56
2022-12-11T07:49:38.426Z,74.46
2022-12-11T07:50:40.136Z,74.13
2022-12-11T07:51:43.623Z,74.48
2022-12-11T07:52:45.529Z,74.09
2022-12-11T07:53:49.515Z,74.70
2022-12-11T07:54:51.209Z,74.68
2022-12-11T07:55:52.915Z,74.04
2022-12-11T07:56:54.603Z,73.65
2022-12-11T07:57:56.267Z,73.43
2022-12-11T07:59:00.611Z,74.03
2022-12-11T08:00:02.336Z,75.51
2022-12-11T08:01:04.050Z,75.30
2022-12-11T08:02:05.870Z,75.63
2022-12-11T08:03:07.560Z,75.14
2022-12-11T08:04:12.084Z,76.49
2022-12-11T08:05:13.925Z,77.70
2022-12-11T08:06:16.576Z,77.44
2022-12-11T08:07:18.287Z,75.89
2022-12-11T08:08:20.343Z,73.41
2022-12-11T08:09:22.815Z,73.50
2022-12-11T08:10:24.515Z,72.72
2022-12-11T08:11:26.433Z,71.88
2022-12-11T08:12:28.110Z,73.23
2022-12-11T08:13:29.796Z,73.46
2022-12-11T08:14:31.489Z,72.38
2022-12-11T08:15:33.965Z,72.68
2022-12-11T08:16:35.762Z,72.78
2022-12-11T08:17:40.204Z,72.54
2022-12-11T08:18:42.912Z,71.66
2022-12-11T08:19:44.573Z,72.08
2022-12-11T08:20:46.310Z,71.58
2022-12-11T08:21:48.072Z,71.13
2022-12-11T08:22:52.344Z,70.39
2022-12-11T08:23:56.753Z,71.44
2022-12-11T08:24:58.697Z,70.01
2022-12-11T08:26:04.210Z,68.79
2022-12-11T08:27:06.023Z,69.45
2022-12-11T08:28:07.748Z,68.68
2022-12-11T08:29:10.190Z,68.03
2022-12-11T08:30:12.158Z,68.18
2022-12-11T08:31:15.987Z,67.98
2022-12-11T08:32:18.874Z,68.52
2022-12-11T08:33:20.567Z,69.82
2022-12-11T08:34:22.394Z,69.92
2022-12-11T08:35:24.187Z,68.89
2022-12-11T08:36:26.318Z,68.02
2022-12-11T08:37:28.139Z,67.35
2022-12-11T08:38:30.363Z,67.65
2022-12-11T08:39:32.098Z,67.25
2022-12-11T08:40:33.767Z,67.05
2022-12-11T08:41:35.434Z,65.97
2022-12-11T08:42:37.245Z,65.38
2022-12-11T08:43:39.373Z,65.80
2022-12-11T08:44:41.417Z,64.80
2022-12-11T08:45:43.128Z,65.25
2022-12-11T08:46:44.860Z,64.84
2022-12-11T08:47:46.556Z,63.18
2022-12-11T08:48:48.430Z,63.83
2022-12-11T08:49:50.093Z,64.49
2022-12-11T08:50:51.813Z,63.81
2022-12-11T08:51:53.475Z,64.17
2022-12-11T08:52:55.193Z,64.27
2022-12-11T08:53:58.515Z,64.36
2022-12-11T08:55:00.209Z,63.37
2022-12-11T08:56:10.466Z,63.37
2022-12-11T08:57:12.164Z,62.65
2022-12-11T08:58:13.852Z,63.22
2022-12-11T08:59:16.840Z,62.86
2022-12-11T09:00:18.862Z,63.35
2022-12-11T09:01:26.350Z,63.15
2022-12-11T09:02:28.114Z,63.57
2022-12-11T09:03:29.809Z,65.07
2022-12-11T09:04:31.490Z,64.72
2022-12-11T09:05:33.143Z,65.76
2022-12-11T09:06:34.950Z,64.03
2022-12-11T09:07:38.089Z,64.71
2022-12-11T09:08:40.426Z,64.50
2022-12-11T09:09:42.130Z,63.84
2022-12-11T09:10:43.964Z,63.88
2022-12-11T09:11:46.593Z,64.49
2022-12-11T09:12:48.267Z,64.08
2022-12-11T09:13:50.269Z,63.67
2022-12-11T09:14:52.044Z,64.43
2022-12-11T09:15:53.791Z,64.15
2022-12-11T09:16:55.505Z,65.13
2022-12-11T09:17:57.204Z,66.54
2022-12-11T09:19:00.006Z,66.92
2022-12-11T09:20:02.327Z,67.12
2022-12-11T09:21:13.547Z,67.51
2022-12-11T09:22:15.313Z,67.50
2022-12-11T09:23:16.984Z,66.82
2022-12-11T09:24:18.710Z,67.85
2022-12-11T09:25:20.429Z,68.88
2022-12-11T09:26:22.979Z,68.49
2022-12-11T09:27:24.733Z,68.34
2022-12-11T09:28:26.620Z,68.43
2022-12-11T09:29:28.301Z,68.30
2022-12-11T09:30:30.036Z,68.21
2022-12-11T09:31:34.971Z,67.75
2022-12-11T09:32:36.714Z,66.85
2022-12-11T09:33:39.417Z,67.36
2022-12-11T09:34:41.078Z,67.39
2022-12-11T09:35:43.340Z,66.67
2022-12-11T09:36:45.068Z,64.65
2022-12-11T09:37:46.745Z,64.89
2022-12-11T09:38:48.904Z,64.33
2022-12-11T09:39:50.606Z,65.11
2022-12-11T09:40:52.287Z,64.01
2022-12-11T09:42:00.048Z,61.98
2022-12-11T09:43:12.693Z,64.56
2022-12-11T09:44:32.456Z,65.96
2022-12-11T09:45:34.209Z,66.70
2022-12-11T09:46:36.844Z,67.09
2022-12-11T09:47:44.424Z,67.17
2022-12-11T09:48:48.280Z,66.75
2022-12-11T09:49:57.092Z,67.43
2022-12-11T09:51:01.128Z,67.91
2022-12-11T09:52:15.140Z,67.79
2022-12-11T09:53:22.963Z,66.55
2022-12-11T09:54:24.687Z,65.92
2022-12-11T09:55:36.338Z,65.23
2022-12-11T09:57:14.781Z,63.74
2022-12-11T09:58:39.267Z,62.59
2022-12-11T10:00:05.703Z,61.06
2022-12-11T10:01:27.129Z,60.02
2022-12-11T10:02:43.836Z,60.16
2022-12-11T10:04:01.886Z,62.33
2022-12-11T10:05:20.250Z,61.25
2022-12-11T10:06:38.402Z,60.13
2022-12-11T10:07:52.039Z,59.58
2022-12-11T10:09:03.551Z,60.18
2022-12-11T10:10:22.679Z,60.43
2022-12-11T10:11:56.766Z,58.89
2022-12-11T10:13:02.944Z,60.85
2022-12-11T10:14:13.647Z,60.53
2022-12-11T10:15:39.863Z,60.68
2022-12-11T10:16:45.380Z,58.10
2022-12-11T10:17:47.864Z,56.68
2022-12-11T10:18:50.183Z,55.47
2022-12-11T10:19:52.478Z,56.50
2022-12-11T10:20:55.017Z,56.34
2022-12-11T10:21:59.096Z,54.94
2022-12-11T10:23:02.207Z,53.75
2022-12-11T10:24:06.135Z,52.79
2022-12-11T10:25:17.980Z,54.91
2022-12-11T10:26:22.656Z,54.64
2022-12-11T10:27:31.562Z,54.76
2022-12-11T10:28:33.387Z,57.00
2022-12-11T10:29:35.122Z,55.71
2022-12-11T10:30:38.381Z,55.96
2022-12-11T10:31:59.195Z,54.78
2022-12-11T10:33:27.016Z,55.08
2022-12-11T10:34:40.150Z,54.67
2022-12-11T10:35:44.795Z,54.97
2022-12-11T10:36:47.217Z,54.33
2022-12-11T10:37:48.909Z,53.44
2022-12-11T10:38:50.868Z,55.07
2022-12-11T10:39:52.649Z,54.23
2022-12-11T10:41:17.871Z,54.87
2022-12-11T10:42:22.461Z,54.99
2022-12-11T10:43:44.450Z,54.78
2022-12-11T10:45:01.047Z,55.51
2022-12-11T10:46:03.996Z,54.87
2022-12-11T10:47:10.623Z,54.70
2022-12-11T10:48:13.357Z,56.00
2022-12-11T10:49:27.915Z,55.97
2022-12-11T10:50:29.723Z,54.45
2022-12-11T10:51:31.320Z,55.39
2022-12-11T10:52:39.192Z,55.48
2022-12-11T10:53:43.375Z,54.42
2022-12-11T10:54:48.967Z,55.20
2022-12-11T10:55:50.882Z,54.59
2022-12-11T10:56:54.119Z,52.98
2022-12-11T10:58:04.453Z,53.42
2022-12-11T10:59:06.901Z,53.22
2022-12-11T11:00:30.085Z,52.85
2022-12-11T11:01:32.993Z,53.55
2022-12-11T11:02:38.645Z,53.07
2022-12-11T11:04:20.299Z,52.90
2022-12-11T11:05:34.743Z,51.11
2022-12-11T11:06:36.531Z,51.95
2022-12-11T11:07:38.359Z,51.84
2022-12-11T11:08:44.215Z,51.37
2022-12-11T11:09:46.241Z,49.98
2022-12-11T11:11:06.209Z,50.67
2022-12-11T11:12:24.762Z,51.30
2022-12-11T11:13:29.084Z,50.55
2022-12-11T11:14:30.829Z,50.04
2022-12-11T11:15:33.023Z,50.21
2022-12-11T11:16:39.006Z,52.03
2022-12-11T11:17:54.241Z,52.39
2022-12-11T11:18:58.278Z,50.14
2022-12-11T11:20:12.172Z,51.50
2022-12-11T11:21:19.140Z,50.07
2022-12-11T11:22:20.841Z,48.88
2022-12-11T11:23:24.005Z,49.49
2022-12-11T11:24:36.888Z,50.36
2022-12-11T11:25:38.644Z,49.89
2022-12-11T11:27:11.635Z,49.16
2022-12-11T11:28:05.972Z,49.15
2022-12-11T11:29:26.399Z,47.15
2022-12-11T11:30:35.015Z,49.62
2022-12-11T11:31:37.063Z,47.26
2022-12-11T11:32:41.443Z,47.91
2022-12-11T11:34:06.161Z,48.79
2022-12-11T11:35:11.686Z,48.32
2022-12-11T11:36:42.976Z,48.83
2022-12-11T11:37:57.209Z,48.90
2022-12-11T11:39:23.489Z,48.68
2022-12-11T11:40:39.597Z,49.58
2022-12-11T11:41:52.077Z,49.42
2022-12-11T11:43:07.589Z,50.86
2022-12-11T11:44:15.091Z,51.05
2022-12-11T11:45:24.523Z,50.32
2022-12-11T11:46:36.706Z,50.15
2022-12-11T11:47:43.464Z,50.85
2022-12-11T11:49:11.803Z,49.72
2022-12-11T11:50:27.868Z,46.45
2022-12-11T11:51:38.987Z,47.22
2022-12-11T11:52:48.856Z,47.94
2022-12-11T11:53:52.906Z,48.16
2022-12-11T11:55:02.274Z,45.67
2022-12-11T11:56:35.173Z,47.32
2022-12-11T11:57:54.269Z,45.81
2022-12-11T11:59:08.591Z,46.88
2022-12-11T12:00:28.869Z,49.38
2022-12-11T12:01:35.000Z,50.83
2022-12-11T12:02:37.012Z,52.15
2022-12-11T12:03:38.709Z,52.81
2022-12-11T12:04:40.515Z,53.52
2022-12-11T12:06:04.539Z,53.95
2022-12-11T12:07:35.377Z,55.52
2022-12-11T12:08:40.097Z,56.20
2022-12-11T12:09:41.729Z,56.26
2022-12-11T12:11:16.044Z,56.53
2022-12-11T12:12:34.413Z,56.36
2022-12-11T12:14:43.690Z,56.93
2022-12-11T12:15:48.904Z,57.10
2022-12-11T12:17:08.868Z,57.31
2022-12-11T12:18:22.880Z,57.41
2022-12-11T12:19:46.351Z,57.56
2022-12-11T12:20:53.745Z,57.79
2022-12-11T12:21:55.973Z,57.29
2022-12-11T12:23:25.502Z,57.44
2022-12-11T12:24:49.588Z,56.31
2022-12-11T12:26:02.337Z,55.89
2022-12-11T12:27:51.583Z,55.60
2022-12-11T12:29:06.004Z,55.25
2022-12-11T12:30:22.116Z,55.52
2022-12-11T12:31:24.863Z,55.41
2022-12-11T12:32:41.059Z,55.75
2022-12-11T12:33:58.034Z,56.14
2022-12-11T12:35:05.821Z,56.68
2022-12-11T12:36:32.543Z,56.80
2022-12-11T12:38:00.461Z,56.58
2022-12-11T12:39:07.956Z,56.25
2022-12-11T12:40:24.950Z,56.16
2022-12-11T12:41:32.820Z,56.88
2022-12-11T12:42:52.947Z,56.33
2022-12-11T12:44:12.090Z,56.47
2022-12-11T12:45:25.140Z,56.48
2022-12-11T12:46:51.715Z,56.29
2022-12-11T12:47:53.710Z,56.70
2022-12-11T12:48:59.073Z,56.74
2022-12-11T12:50:01.802Z,57.95
2022-12-11T12:51:04.614Z,57.22
2022-12-11T12:52:13.462Z,57.68
2022-12-11T12:53:23.121Z,57.18
2022-12-11T12:54:27.955Z,56.83
2022-12-11T12:55:32.040Z,56.15
2022-12-11T12:56:34.157Z,57.18
2022-12-11T12:57:38.408Z,55.38
2022-12-11T12:58:43.732Z,55.56
2022-12-11T12:59:54.436Z,54.01
2022-12-11T13:01:10.907Z,53.11
2022-12-11T13:02:16.938Z,54.05
2022-12-11T13:03:32.781Z,54.18
2022-12-11T13:04:55.076Z,54.67
2022-12-11T13:06:02.046Z,55.49
2022-12-11T13:07:32.802Z,54.86
2022-12-11T13:08:46.183Z,54.33
2022-12-11T13:10:04.744Z,54.53
2022-12-11T13:11:12.512Z,53.74
2022-12-11T13:12:46.296Z,48.57
2022-12-11T13:14:02.687Z,43.19
2022-12-11T13:15:04.477Z,44.16
2022-12-11T13:16:34.682Z,45.15
2022-12-11T13:17:39.307Z,45.05
2022-12-11T13:18:43.374Z,45.48
2022-12-11T13:19:45.089Z,42.90
2022-12-11T13:20:51.230Z,43.87
2022-12-11T13:22:13.149Z,42.88
2022-12-11T13:23:47.169Z,43.85
2022-12-11T13:24:49.572Z,43.83
2022-12-11T13:25:54.832Z,43.39
2022-12-11T13:26:56.931Z,42.94
2022-12-11T13:28:08.960Z,42.29
2022-12-11T13:29:34.088Z,42.17
2022-12-11T13:30:36.380Z,42.17
2022-12-11T13:31:43.933Z,41.84
2022-12-11T13:33:03.673Z,42.27
2022-12-11T13:34:22.919Z,42.92
2022-12-11T13:35:24.755Z,42.29
2022-12-11T13:36:33.243Z,41.98
2022-12-11T13:37:43.400Z,42.83
2022-12-11T13:38:49.522Z,44.24
2022-12-11T13:39:52.132Z,41.93
2022-12-11T13:40:55.804Z,42.95
2022-12-11T13:42:01.884Z,43.05
2022-12-11T13:43:08.461Z,43.38
2022-12-11T13:44:20.242Z,43.23
2022-12-11T13:45:29.811Z,44.53
2022-12-11T13:46:35.941Z,43.10
2022-12-11T13:47:38.302Z,43.10
2022-12-11T13:48:48.011Z,43.26
2022-12-11T13:49:55.251Z,43.06
2022-12-11T13:50:58.537Z,43.64
2022-12-11T13:52:01.224Z,43.85
2022-12-11T13:53:03.567Z,44.24
2022-12-11T13:54:17.250Z,45.05
2022-12-11T13:55:32.680Z,45.09
2022-12-11T13:56:34.565Z,44.87
2022-12-11T13:57:46.085Z,45.11
2022-12-11T13:58:48.400Z,45.55
2022-12-11T13:59:55.817Z,44.68
2022-12-11T14:01:06.489Z,44.74
2022-12-11T14:02:24.015Z,44.64
2022-12-11T14:03:26.306Z,44.90
2022-12-11T14:04:29.733Z,45.19
2022-12-11T14:05:31.709Z,46.08
2022-12-11T14:06:35.246Z,45.04
2022-12-11T14:07:41.879Z,45.91
2022-12-11T14:08:46.327Z,46.26
2022-12-11T14:09:48.129Z,47.07
2022-12-11T14:10:54.262Z,47.29
2022-12-11T14:11:57.466Z,46.29
2022-12-11T14:13:23.559Z,46.63